Time;durP1;ratioP1;P1;durP2;ratioP2;P2;SDS_P1;SDS_P2;PMS_P1;PMS_P2;Temp;Humidity;BMP_temperature;BMP_pressure;BME280_temperature;BME280_humidity;BME280_pressure;Samples;Min_cycle;Max_cycle;Signal;HPM_P1;HPM_P2
2022/04/11 00:04:44;;;;;;;4.97;3.47;;;17.30;40.60;;;;;;5063485;22;20642;-63
2022/04/11 00:07:12;;;;;;;4.38;3.10;;;17.20;40.60;;;;;;5131134;22;20197;-65
2022/04/11 00:09:39;;;;;;;4.05;3.03;;;17.20;40.80;;;;;;5070300;22;20645;-69
2022/04/11 00:12:07;;;;;;;3.75;3.20;;;17.20;40.60;;;;;;5037081;28;20202;-69
2022/04/11 00:19:59;;;;;;;3.80;3.15;;;17.20;40.80;;;;;;3413977;22;20695;-66
2022/04/11 00:22:27;;;;;;;4.22;3.20;;;17.20;40.80;;;;;;5035900;28;20199;-65
2022/04/11 00:24:54;;;;;;;4.57;3.22;;;17.10;40.80;;;;;;5016129;28;20249;-65
2022/04/11 00:27:21;;;;;;;5.18;3.83;;;17.10;40.80;;;;;;5017090;28;20660;-65
2022/04/11 00:35:50;;;;;;;3.72;3.38;;;17.10;40.90;;;;;;4165285;22;20260;-67
2022/04/11 00:38:17;;;;;;;3.58;3.03;;;17.10;40.90;;;;;;5069915;22;20231;-65
2022/04/11 00:40:44;;;;;;;3.30;2.92;;;17.00;40.90;;;;;;5092933;22;20746;-64
2022/04/11 00:43:11;;;;;;;4.55;3.40;;;17.00;40.90;;;;;;5078407;22;20653;-71
2022/04/11 00:48:35;;;;;;;3.90;3.00;;;17.00;41.00;;;;;;5119406;22;20669;-63
2022/04/11 00:56:28;;;;;;;4.82;3.17;;;16.90;40.90;;;;;;5111637;22;20238;-66
2022/04/11 00:58:55;;;;;;;4.18;3.10;;;16.90;41.00;;;;;;5039636;22;20222;-67
2022/04/11 01:01:22;;;;;;;4.10;2.92;;;16.90;41.00;;;;;;5060360;22;20235;-66
2022/04/11 01:03:51;;;;;;;3.38;3.05;;;16.90;41.10;;;;;;5077083;22;20223;-67
2022/04/11 01:09:13;;;;;;;3.65;3.00;;;16.90;41.10;;;;;;5114433;22;20223;-70
2022/04/11 01:17:35;;;;;;;4.03;3.10;;;16.80;41.00;;;;;;5125649;22;20239;-65
2022/04/11 01:22:56;;;;;;;4.03;3.20;;;16.80;41.00;;;;;;5144418;22;20288;-67
2022/04/11 01:25:24;;;;;;;3.15;2.90;;;16.80;41.00;;;;;;5050311;22;20609;-65
2022/04/11 01:27:51;;;;;;;4.53;3.25;;;16.70;41.00;;;;;;5076689;22;20288;-65
2022/04/11 01:30:19;;;;;;;3.20;2.85;;;16.80;41.10;;;;;;5168514;22;20312;-67
2022/04/11 01:32:48;;;;;;;4.53;2.80;;;16.80;41.10;;;;;;5063732;22;20310;-65
2022/04/11 01:35:20;;;;;;;3.08;2.78;;;16.70;41.20;;;;;;5053307;28;20196;-65
2022/04/11 01:37:47;;;;;;;3.60;2.97;;;16.70;41.00;;;;;;5051906;28;20211;-65
2022/04/11 01:40:17;;;;;;;4.05;3.05;;;16.70;41.10;;;;;;5104115;22;20226;-81
2022/04/11 01:50:38;;;;;;;3.60;3.05;;;16.70;41.20;;;;;;5139697;22;20486;-64
2022/04/11 01:55:49;;;;;;;3.15;2.80;;;16.60;41.10;;;;;;5159138;22;20230;-64
2022/04/11 01:58:16;;;;;;;3.72;2.90;;;16.60;41.10;;;;;;5087857;22;20379;-66
2022/04/11 02:00:44;;;;;;;4.35;2.75;;;16.60;41.10;;;;;;5086037;22;20734;-65
2022/04/11 02:03:12;;;;;;;3.92;2.90;;;16.60;41.20;;;;;;5069902;22;20727;-71
2022/04/11 02:08:21;;;;;;;3.33;2.78;;;16.60;41.20;;;;;;5079525;22;20284;-68
2022/04/11 02:10:55;;;;;;;3.10;2.80;;;16.60;41.20;;;;;;5213201;22;20229;-66
2022/04/11 02:13:22;;;;;;;3.10;2.80;;;16.60;41.20;;;;;;5119369;22;20234;-70
2022/04/11 02:23:51;;;;;;;3.58;2.90;;;16.50;41.20;;;;;;5249643;22;20261;-68
2022/04/11 02:31:26;;;;;;;3.20;2.90;;;16.50;41.10;;;;;;5083152;22;20644;-69
2022/04/11 02:33:53;;;;;;;3.35;2.80;;;16.50;41.10;;;;;;5060679;22;20250;-65
2022/04/11 02:39:05;;;;;;;3.15;2.83;;;16.50;41.20;;;;;;5081275;22;20230;-69
2022/04/11 02:49:26;;;;;;;2.80;2.60;;;16.40;41.20;;;;;;5063474;22;20273;-64
2022/04/11 02:57:15;;;;;;;3.13;2.83;;;16.40;41.20;;;;;;5041516;22;20231;-70
2022/04/11 02:59:43;;;;;;;3.75;2.90;;;16.40;41.20;;;;;;5114930;22;20262;-69
2022/04/11 03:04:45;;;;;;;3.67;3.10;;;16.40;41.20;;;;;;5082715;22;20235;-83
2022/04/11 03:10:20;;;;;;;3.35;2.67;;;16.40;41.20;;;;;;5107221;22;20235;-70
2022/04/11 03:12:51;;;;;;;3.85;2.50;;;16.40;41.10;;;;;;5062345;22;20285;-71
2022/04/11 03:15:19;;;;;;;2.72;2.53;;;16.40;41.20;;;;;;5054403;22;20337;-72
2022/04/11 03:17:47;;;;;;;2.90;2.70;;;16.40;41.20;;;;;;5081214;22;20338;-70
2022/04/11 03:22:51;;;;;;;2.97;2.67;;;16.40;41.10;;;;;;5040259;22;20247;-69
2022/04/11 03:25:18;;;;;;;3.10;2.80;;;16.40;41.10;;;;;;5088004;22;20231;-69
2022/04/11 03:30:21;;;;;;;2.50;2.30;;;16.40;41.10;;;;;;1870321;22;20230;-63
2022/04/11 03:38:08;;;;;;;3.33;3.00;;;16.40;41.00;;;;;;5089722;22;20237;-69
2022/04/11 03:40:36;;;;;;;2.58;2.38;;;16.40;41.10;;;;;;5114679;22;20249;-71
2022/04/11 03:43:08;;;;;;;2.50;2.25;;;16.40;41.10;;;;;;5147119;22;20243;-65
2022/04/11 03:53:38;;;;;;;2.60;2.40;;;16.50;41.10;;;;;;5102562;22;20281;-63
2022/04/11 03:56:31;;;;;;;2.75;2.38;;;16.50;41.00;;;;;;5085753;22;20242;-69
2022/04/11 03:59:01;;;;;;;2.60;2.40;;;16.50;41.00;;;;;;5035885;28;20195;-69
2022/04/11 04:01:28;;;;;;;3.10;2.80;;;16.50;41.10;;;;;;5035925;28;20585;-70
2022/04/11 04:03:55;;;;;;;2.55;2.35;;;16.50;41.00;;;;;;5035598;28;20195;-71
2022/04/11 04:06:23;;;;;;;3.33;2.65;;;16.50;40.80;;;;;;5035927;28;20707;-70
2022/04/11 04:14:16;;;;;;;2.88;2.60;;;16.50;40.70;;;;;;4889003;22;20975;-64
2022/04/11 04:16:48;;;;;;;6.85;2.65;;;16.50;40.80;;;;;;5174390;22;20597;-70
2022/04/11 04:19:18;;;;;;;3.30;3.00;;;16.60;41.80;;;;;;5053829;22;20231;-66
2022/04/11 04:21:46;;;;;;;2.85;2.63;;;16.60;43.70;;;;;;5037275;28;20617;-65
2022/04/11 04:27:09;;;;;;;3.17;2.45;;;16.60;42.20;;;;;;5288609;22;20215;-67
2022/04/11 04:29:40;;;;;;;3.03;2.80;;;16.70;42.70;;;;;;5124954;22;20193;-69
2022/04/11 04:32:08;;;;;;;2.63;2.42;;;16.70;41.90;;;;;;5036499;28;20269;-69
2022/04/11 04:39:49;;;;;;;2.88;2.67;;;16.80;41.80;;;;;;3391054;26;20563;-53
2022/04/11 04:44:54;;;;;;;3.38;2.40;;;16.80;41.50;;;;;;5127563;22;20227;-63
2022/04/11 04:52:49;;;;;;;2.75;2.55;;;16.90;41.40;;;;;;5187354;22;20208;-71
2022/04/11 04:55:17;;;;;;;2.85;2.35;;;17.00;41.20;;;;;;5095180;22;20304;-69
2022/04/11 05:00:27;;;;;;;2.75;2.45;;;17.00;40.60;;;;;;2548546;22;20231;-68
2022/04/11 05:05:55;;;;;;;4.00;2.67;;;17.10;40.60;;;;;;5016737;22;1599334;-70
2022/04/11 05:08:24;;;;;;;2.75;2.47;;;17.10;40.40;;;;;;5051072;22;20235;-71
2022/04/11 05:10:51;;;;;;;2.60;2.40;;;17.10;40.50;;;;;;5116707;22;20566;-66
2022/04/11 05:13:19;;;;;;;2.53;2.33;;;17.10;40.50;;;;;;5112248;22;20615;-66
2022/04/11 05:15:49;;;;;;;2.30;2.20;;;17.10;40.40;;;;;;5183106;22;20243;-72
2022/04/11 05:18:22;;;;;;;2.75;2.55;;;17.20;40.50;;;;;;5050907;22;20255;-69
2022/04/11 05:20:51;;;;;;;3.38;2.33;;;17.20;40.40;;;;;;5076497;23;20291;-63
2022/04/11 05:34:42;;;;;;;3.70;2.60;;;17.30;39.90;;;;;;687559;22;21120;-64
2022/04/11 05:42:31;;;;;;;2.97;2.50;;;17.50;39.30;;;;;;5022397;28;20212;-63
2022/04/11 05:44:59;;;;;;;2.35;2.15;;;17.60;39.10;;;;;;5148383;22;20220;-63
2022/04/11 05:47:28;;;;;;;3.10;2.25;;;17.80;38.80;;;;;;5260319;22;20256;-68
2022/04/11 05:49:58;;;;;;;2.55;2.35;;;18.00;38.40;;;;;;5112284;22;20728;-66
2022/04/11 05:52:25;;;;;;;2.75;2.55;;;18.20;37.90;;;;;;5200741;22;20251;-65
2022/04/11 05:54:52;;;;;;;2.58;2.30;;;18.40;37.50;;;;;;5200894;22;21017;-65
2022/04/11 05:57:20;;;;;;;3.45;2.38;;;18.60;37.30;;;;;;5062366;22;20287;-67
2022/04/11 05:59:47;;;;;;;2.50;2.28;;;18.80;37.00;;;;;;5044268;28;20200;-67
2022/04/11 06:08:07;;;;;;;2.45;2.25;;;19.30;36.10;;;;;;4614962;22;20258;-66
2022/04/11 06:21:11;;;;;;;2.75;2.40;;;20.10;35.00;;;;;;2289050;22;20226;-52
2022/04/11 06:29:04;;;;;;;2.70;2.50;;;20.30;34.60;;;;;;5102033;22;20251;-65
2022/04/11 06:31:31;;;;;;;3.10;2.80;;;20.30;34.60;;;;;;5055674;22;20231;-70
2022/04/11 06:45:04;;;;;;;3.00;2.80;;;21.10;33.80;;;;;;4895317;22;20522;-70
2022/04/11 06:55:28;;;;;;;2.85;2.65;;;21.60;33.30;;;;;;5054990;28;20538;-71
2022/04/11 07:05:54;;;;;;;2.88;2.50;;;22.00;32.50;;;;;;3370054;26;20294;-48
2022/04/11 07:32:17;;;;;;;2.90;2.03;;;22.90;31.30;;;;;;5054161;28;20234;-67
2022/04/11 07:40:26;;;;;;;2.17;1.90;;;23.10;31.10;;;;;;5066696;22;20210;-55
2022/04/11 07:42:55;;;;;;;1.90;1.80;;;23.20;30.90;;;;;;5095991;22;20225;-67
2022/04/11 07:52:59;;;;;;;1.90;1.80;;;23.40;30.60;;;;;;5064548;22;20229;-66
2022/04/11 08:03:50;;;;;;;1.92;1.83;;;23.70;30.20;;;;;;5032582;28;20219;-51
2022/04/11 08:06:57;;;;;;;1.70;1.60;;;23.70;30.20;;;;;;5033995;28;20180;-50
2022/04/11 08:20:09;;;;;;;1.60;1.50;;;24.00;29.90;;;;;;5051359;28;20222;-52
2022/04/11 08:22:37;;;;;;;1.80;1.70;;;24.00;29.70;;;;;;5035703;28;20203;-52
2022/04/11 08:57:36;;;;;;;1.60;1.50;;;24.60;29.30;;;;;;5030281;28;20219;-56
2022/04/11 09:00:04;;;;;;;1.60;1.50;;;24.60;29.20;;;;;;5033037;28;20596;-56
2022/04/11 09:02:34;;;;;;;1.52;1.42;;;24.60;29.30;;;;;;5033178;28;20371;-56
2022/04/11 09:10:32;;;;;;;1.70;1.60;;;24.70;29.20;;;;;;2412527;22;20230;-51
2022/04/11 09:13:01;;;;;;;1.67;1.58;;;24.70;29.10;;;;;;5035275;28;20219;-51
2022/04/11 09:15:28;;;;;;;1.65;1.50;;;24.70;29.10;;;;;;5068218;22;20247;-65
2022/04/11 09:20:41;;;;;;;1.70;1.60;;;24.70;29.10;;;;;;4906497;22;20222;-70
2022/04/11 09:50:22;;;;;;;2.00;1.80;;;24.70;29.30;;;;;;1481606;26;20212;-52
2022/04/11 09:52:49;;;;;;;1.80;1.70;;;24.60;29.30;;;;;;5032833;28;20183;-51
2022/04/11 09:55:17;;;;;;;1.58;1.40;;;24.60;29.40;;;;;;5033205;28;20605;-51
2022/04/11 09:57:44;;;;;;;1.60;1.50;;;24.50;29.30;;;;;;5015119;28;20216;-52
2022/04/11 10:22:27;;;;;;;1.58;1.40;;;24.40;29.60;;;;;;3385483;26;20587;-52
2022/04/11 10:25:01;;;;;;;1.60;1.50;;;24.40;29.70;;;;;;5076007;28;20598;-52
2022/04/11 10:27:29;;;;;;;1.52;1.42;;;24.40;29.60;;;;;;5075944;28;20179;-52
2022/04/11 10:35:21;;;;;;;1.40;1.38;;;24.30;29.80;;;;;;5093364;28;20225;-50
2022/04/11 10:45:57;;;;;;;1.40;1.30;;;24.10;30.00;;;;;;5072569;22;20308;-84
2022/04/11 10:48:57;;;;;;;1.58;1.48;;;24.10;30.00;;;;;;5053471;28;20187;-84
2022/04/11 11:00:04;;;;;;;1.30;1.20;;;24.10;30.00;;;;;;5068500;22;20270;-70
2022/04/11 11:03:05;;;;;;;1.40;1.33;;;24.00;30.00;;;;;;5038489;28;20253;-70
2022/04/11 11:05:36;;;;;;;1.60;1.50;;;24.00;30.00;;;;;;5038239;28;20199;-70
2022/04/11 11:11:25;;;;;;;1.50;1.40;;;24.00;30.10;;;;;;5053059;28;20241;-66
2022/04/11 11:32:49;;;;;;;1.50;1.33;;;23.70;30.50;;;;;;5051922;28;20230;-50
2022/04/11 11:35:16;;;;;;;1.30;1.20;;;23.70;30.50;;;;;;5051596;22;20223;-66
2022/04/11 11:48:25;;;;;;;1.52;1.42;;;23.70;30.60;;;;;;5078147;22;20261;-66
2022/04/11 11:58:50;;;;;;;1.10;1.10;;;23.60;30.80;;;;;;5051258;28;20211;-55
2022/04/11 12:01:17;;;;;;;1.20;1.20;;;23.60;30.80;;;;;;5054096;28;20222;-55
2022/04/11 12:09:35;;;;;;;1.35;1.30;;;23.60;30.70;;;;;;5051422;28;20217;-50
2022/04/11 12:12:04;;;;;;;1.35;1.30;;;23.50;30.80;;;;;;5035801;28;20277;-50
2022/04/11 12:22:42;;;;;;;1.40;1.40;;;23.60;30.70;;;;;;5051823;28;20217;-70
2022/04/11 12:36:12;;;;;;;1.40;1.30;;;23.60;30.80;;;;;;3027485;22;20230;-66
2022/04/11 12:38:45;;;;;;;1.60;1.50;;;23.60;30.90;;;;;;5056007;28;20210;-67
2022/04/11 13:00:56;;;;;;;1.40;1.30;;;23.70;30.80;;;;;;5054939;22;20261;-70
2022/04/11 13:03:24;;;;;;;1.63;1.52;;;23.70;30.20;;;;;;5036171;28;20203;-70
2022/04/11 13:05:52;;;;;;;1.70;1.60;;;23.70;30.30;;;;;;5102655;22;20210;-71
2022/04/11 13:40:05;;;;;;;1.40;1.30;;;23.50;31.00;;;;;;1485193;26;20226;-52
2022/04/11 13:42:58;;;;;;;1.50;1.40;;;23.50;31.10;;;;;;5056993;28;20709;-52
2022/04/11 13:58:49;;;;;;;1.70;1.60;;;23.30;31.00;;;;;;1409180;26;20223;-50
2022/04/11 14:01:32;;;;;;;1.70;1.60;;;23.30;31.50;;;;;;5072066;22;20238;-49
2022/04/11 14:17:15;;;;;;;1.67;1.58;;;23.20;31.80;;;;;;5083194;22;20274;-56
2022/04/11 14:30:23;;;;;;;1.67;1.58;;;23.10;32.00;;;;;;1044017;22;20562;-56
2022/04/11 14:36:28;;;;;;;1.67;1.58;;;23.10;32.10;;;;;;5060073;22;20346;-69
2022/04/11 15:08:04;;;;;;;1.80;1.70;;;22.80;32.10;;;;;;5052376;28;20340;-53
2022/04/11 15:10:33;;;;;;;1.40;1.30;;;22.80;32.10;;;;;;5054830;28;20277;-55
2022/04/11 15:13:00;;;;;;;1.60;1.50;;;22.80;32.30;;;;;;5055038;28;20194;-55
2022/04/11 15:15:27;;;;;;;1.58;1.48;;;22.80;32.40;;;;;;5037100;28;20658;-55
2022/04/11 15:29:24;;;;;;;1.80;1.70;;;22.70;32.90;;;;;;5115260;22;20266;-55
2022/04/11 15:53:08;;;;;;;1.85;1.75;;;22.60;33.10;;;;;;5051998;28;20262;-57
2022/04/11 16:17:27;;;;;;;1.70;1.60;;;22.40;33.60;;;;;;4930649;22;20231;-65
2022/04/11 17:08:11;;;;;;;1.98;1.88;;;22.10;33.90;;;;;;5031700;28;20204;-55
2022/04/11 17:11:00;;;;;;;2.13;1.92;;;22.10;33.90;;;;;;5064819;22;20223;-56
2022/04/11 17:26:44;;;;;;;1.80;1.70;;;22.00;34.10;;;;;;5050076;28;20309;-52
2022/04/11 17:29:12;;;;;;;1.30;1.20;;;22.00;34.20;;;;;;5060200;22;20228;-52
2022/04/11 17:47:39;;;;;;;1.20;1.20;;;21.80;34.30;;;;;;5049763;28;20705;-53
2022/04/11 18:03:54;;;;;;;1.60;1.50;;;21.70;35.10;;;;;;5196531;22;20578;-66
2022/04/11 18:25:06;;;;;;;1.27;1.20;;;21.50;35.70;;;;;;5067525;22;20242;-56
2022/04/11 18:37:59;;;;;;;1.40;1.30;;;21.40;36.00;;;;;;5053056;28;20214;-53
2022/04/11 18:48:18;;;;;;;2.17;1.50;;;21.30;36.10;;;;;;5079289;22;20515;-70
2022/04/11 19:12:32;;;;;;;2.38;1.50;;;21.20;37.60;;;;;;4957611;29;20258;-72
2022/04/11 19:14:59;;;;;;;1.70;1.60;;;21.10;37.60;;;;;;4957461;29;20201;-72
2022/04/11 19:17:26;;;;;;;2.35;1.52;;;21.10;37.50;;;;;;4957307;28;20195;-72
2022/04/11 19:22:35;;;;;;;1.50;1.40;;;21.10;37.60;;;;;;4268650;26;20671;-50
2022/04/11 19:25:04;;;;;;;1.55;1.30;;;21.00;37.50;;;;;;5079115;22;20776;-73
2022/04/11 19:27:32;;;;;;;1.52;1.42;;;21.00;37.70;;;;;;5069109;28;20715;-69
2022/04/11 19:29:59;;;;;;;2.17;1.50;;;21.00;37.50;;;;;;5039315;28;20673;-70
2022/04/11 19:40:34;;;;;;;1.77;1.55;;;20.90;37.40;;;;;;5629042;22;20235;-69
2022/04/11 19:43:02;;;;;;;2.13;1.48;;;20.90;37.40;;;;;;5035954;28;20213;-69
2022/04/11 19:45:30;;;;;;;1.77;1.67;;;20.90;37.60;;;;;;5035639;28;20198;-71
2022/04/11 19:54:53;;;;;;;1.80;1.70;;;20.80;37.40;;;;;;5013962;28;20211;-70
2022/04/11 19:57:28;;;;;;;2.17;1.60;;;20.80;37.40;;;;;;5163551;22;20316;-71
2022/04/11 20:00:00;;;;;;;5.57;3.95;;;20.80;37.50;;;;;;5053820;22;20235;-61
2022/04/11 20:02:28;;;;;;;4.40;3.97;;;20.80;38.60;;;;;;5035876;28;20191;-61
2022/04/11 20:08:42;;;;;;;6.95;3.08;;;20.80;39.90;;;;;;5055879;28;20159;-64
2022/04/11 20:11:09;;;;;;;4.15;2.90;;;20.70;39.10;;;;;;5036546;28;20207;-65
2022/04/11 20:13:55;;;;;;;4.95;2.60;;;20.70;39.00;;;;;;5064040;22;20204;-82
2022/04/11 20:16:23;;;;;;;8.82;5.03;;;20.70;38.70;;;;;;4999964;28;20228;-83
2022/04/11 20:18:50;;;;;;;8.13;3.80;;;20.70;40.30;;;;;;4998703;28;20200;-83
2022/04/11 20:21:17;;;;;;;5.13;4.22;;;20.70;40.10;;;;;;5016554;28;20291;-83
2022/04/11 20:23:44;;;;;;;6.53;4.90;;;20.70;41.10;;;;;;4998219;28;20224;-82
2022/04/11 20:26:13;;;;;;;16.80;7.07;;;20.70;41.30;;;;;;4997946;28;20271;-82
2022/04/11 20:28:40;;;;;;;15.90;8.85;;;20.70;41.70;;;;;;5015568;28;20184;-82
2022/04/11 20:31:08;;;;;;;17.30;10.77;;;20.70;42.50;;;;;;4997856;28;20197;-81
2022/04/11 20:33:38;;;;;;;10.60;6.55;;;20.70;42.70;;;;;;5015760;28;20660;-83
2022/04/11 20:39:52;;;;;;;9.77;5.32;;;20.70;41.50;;;;;;5035088;28;20254;-70
2022/04/11 20:42:19;;;;;;;8.77;4.72;;;20.70;41.20;;;;;;5016322;28;20287;-71
2022/04/11 20:44:46;;;;;;;7.97;4.75;;;20.70;41.10;;;;;;5033749;28;20200;-70
2022/04/11 20:47:13;;;;;;;8.07;4.47;;;20.70;40.70;;;;;;5017254;28;20200;-70
2022/04/11 20:49:42;;;;;;;8.38;4.80;;;20.70;40.50;;;;;;5015765;28;20223;-70
2022/04/11 20:52:09;;;;;;;7.60;4.25;;;20.70;40.40;;;;;;5015886;28;20203;-70
2022/04/11 20:57:28;;;;;;;8.13;4.43;;;20.60;40.10;;;;;;4996118;28;20574;-71
2022/04/11 20:59:55;;;;;;;8.48;4.25;;;20.60;40.00;;;;;;5033899;28;20201;-69
2022/04/11 21:02:25;;;;;;;4.78;4.03;;;20.60;40.10;;;;;;5088728;22;20236;-70
2022/04/11 21:04:54;;;;;;;6.43;3.92;;;20.60;39.90;;;;;;5018360;28;20290;-70
2022/04/11 21:07:21;;;;;;;6.22;3.92;;;20.60;40.00;;;;;;5018681;28;20290;-71
2022/04/11 21:09:49;;;;;;;5.90;3.60;;;20.60;40.20;;;;;;5016214;28;20223;-70
2022/04/11 21:12:16;;;;;;;5.25;3.47;;;20.50;40.30;;;;;;5016127;28;20216;-70
2022/04/11 21:14:44;;;;;;;6.15;3.78;;;20.50;40.50;;;;;;5016037;28;20295;-70
2022/04/11 21:17:10;;;;;;;6.38;3.58;;;20.50;40.30;;;;;;5016134;28;20200;-68
2022/04/11 21:19:39;;;;;;;6.45;3.60;;;20.50;40.40;;;;;;5033852;28;20208;-68
2022/04/11 21:22:07;;;;;;;5.93;3.47;;;20.40;40.30;;;;;;5033818;28;20235;-67
2022/04/11 21:24:34;;;;;;;4.55;3.53;;;20.40;40.20;;;;;;5017097;28;20219;-70
2022/04/11 21:27:01;;;;;;;6.25;3.80;;;20.40;40.10;;;;;;5016774;28;20192;-69
2022/04/11 21:29:29;;;;;;;5.03;3.40;;;20.40;40.20;;;;;;5033794;28;20192;-69
2022/04/11 21:31:56;;;;;;;6.30;3.60;;;20.30;40.30;;;;;;5016685;28;20226;-69
2022/04/11 21:34:23;;;;;;;6.57;3.55;;;20.30;40.90;;;;;;5034104;28;20204;-69
2022/04/11 21:36:50;;;;;;;4.38;3.13;;;20.30;40.20;;;;;;5033984;28;20219;-69
2022/04/11 21:39:19;;;;;;;4.50;3.05;;;20.30;40.10;;;;;;5016188;28;20200;-69
2022/04/11 21:41:48;;;;;;;6.05;3.28;;;20.30;40.20;;;;;;5016695;28;20296;-69
2022/04/11 21:44:15;;;;;;;5.28;3.50;;;20.20;40.10;;;;;;5016173;28;20198;-69
2022/04/11 21:46:42;;;;;;;5.82;3.63;;;20.20;40.20;;;;;;5015967;28;20227;-69
2022/04/11 21:49:11;;;;;;;6.25;3.80;;;20.20;40.20;;;;;;5015745;28;20282;-69
2022/04/11 21:51:38;;;;;;;5.75;3.47;;;20.20;40.30;;;;;;5016218;28;20215;-69
2022/04/11 21:54:09;;;;;;;6.30;3.40;;;20.10;40.10;;;;;;5016026;28;20284;-69
2022/04/11 21:56:37;;;;;;;7.53;3.72;;;20.10;40.10;;;;;;5015769;28;20225;-69
2022/04/11 21:59:04;;;;;;;5.90;3.50;;;20.10;40.10;;;;;;5037040;28;20196;-69
2022/04/11 22:01:34;;;;;;;5.35;3.72;;;20.00;40.10;;;;;;5019416;28;20216;-69
2022/04/11 22:04:02;;;;;;;5.75;3.60;;;20.00;40.10;;;;;;5019869;28;20208;-69
2022/04/11 22:06:29;;;;;;;4.75;3.08;;;20.00;40.10;;;;;;5019507;28;20204;-69
2022/04/11 22:08:56;;;;;;;4.38;3.28;;;20.00;40.10;;;;;;5037145;28;20188;-68
2022/04/11 22:11:23;;;;;;;7.05;3.25;;;19.90;40.10;;;;;;5019516;28;20218;-68
2022/04/11 22:13:52;;;;;;;5.15;3.42;;;19.90;40.10;;;;;;5019243;28;20269;-69
2022/04/11 22:16:19;;;;;;;6.13;3.08;;;19.90;40.20;;;;;;5037186;28;20192;-69
2022/04/11 22:18:46;;;;;;;4.53;3.30;;;19.90;40.10;;;;;;5019842;28;20254;-69
2022/04/11 22:21:13;;;;;;;5.30;3.33;;;19.90;40.20;;;;;;5036924;28;20212;-68
2022/04/11 22:23:40;;;;;;;5.28;3.17;;;19.90;40.20;;;;;;5019258;28;20223;-68
2022/04/11 22:26:07;;;;;;;3.90;2.90;;;19.80;40.20;;;;;;5033350;28;20227;-68
2022/04/11 22:28:34;;;;;;;4.53;3.15;;;19.80;40.20;;;;;;5022899;28;20196;-69
2022/04/11 22:31:03;;;;;;;4.68;3.13;;;19.70;40.20;;;;;;5037043;28;20188;-68
2022/04/11 22:33:29;;;;;;;4.75;3.45;;;19.70;40.20;;;;;;5036673;28;20226;-68
2022/04/11 22:35:57;;;;;;;3.88;2.80;;;19.70;40.30;;;;;;5019265;28;20274;-68
2022/04/11 22:38:24;;;;;;;4.45;3.08;;;19.70;40.20;;;;;;5036571;28;20203;-68
2022/04/11 22:40:51;;;;;;;4.90;3.35;;;19.70;40.30;;;;;;5018562;28;20223;-68
2022/04/11 22:43:18;;;;;;;7.43;3.55;;;19.60;40.30;;;;;;5036324;28;20216;-69
2022/04/11 22:45:45;;;;;;;5.20;3.08;;;19.70;40.40;;;;;;5018452;28;20621;-68
2022/04/11 22:48:14;;;;;;;3.47;2.97;;;19.60;40.30;;;;;;5036079;28;20196;-68
2022/04/11 22:50:41;;;;;;;4.53;3.30;;;19.60;41.00;;;;;;5036333;28;20274;-69
2022/04/11 22:53:08;;;;;;;7.43;3.67;;;19.60;40.40;;;;;;5036411;28;20231;-68
2022/04/11 22:55:35;;;;;;;9.98;3.92;;;19.60;40.90;;;;;;5036580;28;20318;-68
2022/04/11 22:58:02;;;;;;;8.27;4.28;;;19.50;41.10;;;;;;5036079;28;20192;-69
2022/04/11 23:00:29;;;;;;;7.43;3.67;;;19.50;41.20;;;;;;5035996;28;20685;-68
2022/04/11 23:02:56;;;;;;;5.90;3.80;;;19.40;41.10;;;;;;5017989;28;20228;-68
2022/04/11 23:05:24;;;;;;;6.82;3.88;;;19.50;41.60;;;;;;5018111;28;20195;-68
2022/04/11 23:07:52;;;;;;;7.07;3.45;;;19.40;41.60;;;;;;5035700;28;20219;-68
2022/04/11 23:10:18;;;;;;;7.32;3.90;;;19.40;41.50;;;;;;5017027;28;20329;-69
2022/04/11 23:12:54;;;;;;;4.93;3.05;;;19.40;41.60;;;;;;5021698;28;20232;-69
2022/04/11 23:15:22;;;;;;;6.05;3.60;;;19.40;41.60;;;;;;5022506;28;20196;-69
2022/04/11 23:17:48;;;;;;;5.85;3.22;;;19.30;41.40;;;;;;5047874;28;20223;-68
2022/04/11 23:20:16;;;;;;;6.78;3.22;;;19.30;41.40;;;;;;5018950;28;20591;-69
2022/04/11 23:22:44;;;;;;;5.88;3.35;;;19.30;41.30;;;;;;5036026;28;20235;-69
2022/04/11 23:25:16;;;;;;;4.43;3.28;;;19.30;41.40;;;;;;5018828;28;20655;-69
2022/04/11 23:27:44;;;;;;;4.47;3.45;;;19.20;41.40;;;;;;5035582;28;20188;-69
2022/04/11 23:30:12;;;;;;;5.78;3.10;;;19.20;45.10;;;;;;5017881;28;20192;-68
2022/04/11 23:32:40;;;;;;;5.75;3.67;;;19.20;44.50;;;;;;5017673;28;20625;-68
2022/04/11 23:35:07;;;;;;;4.20;3.25;;;19.20;45.00;;;;;;5035963;28;20258;-69
2022/04/11 23:37:34;;;;;;;4.68;3.63;;;19.20;44.20;;;;;;5017709;28;20669;-68
2022/04/11 23:40:58;;;;;;;4.88;3.28;;;19.20;44.20;;;;;;5017580;28;20202;-68
2022/04/11 23:42:51;;;;;;;3.38;2.90;;;19.20;44.00;;;;;;5017735;28;20285;-68
2022/04/11 23:45:18;;;;;;;4.18;3.03;;;19.20;43.80;;;;;;5018717;28;20192;-68
2022/04/11 23:47:46;;;;;;;4.50;3.20;;;19.20;43.70;;;;;;5035504;28;20196;-68
2022/04/11 23:50:14;;;;;;;4.10;2.80;;;19.20;43.60;;;;;;5017566;28;20562;-68
2022/04/11 23:52:41;;;;;;;3.72;2.90;;;19.20;43.60;;;;;;5017180;28;20653;-68
2022/04/11 23:55:10;;;;;;;4.20;2.85;;;19.10;43.40;;;;;;5035092;28;20203;-68
2022/04/11 23:57:37;;;;;;;4.25;3.20;;;19.10;43.30;;;;;;5017045;28;20556;-68
